createdAt,value
2018-10-17T00:01:03.723Z,14.40
2018-10-17T00:03:32.485Z,14.40
2018-10-17T00:06:01.163Z,14.40
2018-10-17T00:08:29.756Z,14.60
2018-10-17T00:10:58.483Z,14.70
2018-10-17T00:13:27.047Z,14.70
2018-10-17T00:15:55.623Z,14.80
2018-10-17T00:18:24.079Z,14.70
2018-10-17T00:20:52.540Z,14.60
2018-10-17T00:23:21.017Z,14.50
2018-10-17T00:25:49.533Z,14.40
2018-10-17T00:28:17.960Z,14.40
2018-10-17T00:30:46.505Z,14.30
2018-10-17T00:33:15.201Z,14.30
2018-10-17T00:35:43.726Z,14.30
2018-10-17T00:38:12.250Z,14.30
2018-10-17T00:40:40.698Z,14.30
2018-10-17T00:43:09.151Z,14.30
2018-10-17T00:45:37.578Z,14.30
2018-10-17T00:48:06.072Z,14.40
2018-10-17T00:50:34.551Z,14.30
2018-10-17T00:53:02.958Z,14.30
2018-10-17T00:55:31.363Z,14.20
2018-10-17T00:57:59.785Z,14.20
2018-10-17T01:00:28.299Z,14.20
2018-10-17T01:02:56.808Z,14.30
2018-10-17T01:05:25.272Z,14.30
2018-10-17T01:07:53.813Z,14.20
2018-10-17T01:10:22.290Z,14.20
2018-10-17T01:12:50.741Z,14.20
2018-10-17T01:15:19.221Z,14.30
2018-10-17T01:17:47.628Z,14.20
2018-10-17T01:20:16.125Z,14.20
2018-10-17T01:22:44.570Z,14.20
2018-10-17T01:25:13.062Z,14.20
2018-10-17T01:27:41.427Z,14.10
2018-10-17T01:30:09.838Z,14.10
2018-10-17T01:32:38.323Z,14.10
2018-10-17T01:35:07.389Z,14.20
2018-10-17T01:37:35.896Z,14.20
2018-10-17T01:40:04.447Z,14.10
2018-10-17T01:42:32.959Z,14.10
2018-10-17T01:45:01.379Z,14.20
2018-10-17T01:47:29.812Z,14.10
2018-10-17T01:49:58.324Z,14.10
2018-10-17T01:52:26.760Z,14.10
2018-10-17T01:54:55.265Z,14.00
2018-10-17T01:57:23.804Z,14.00
2018-10-17T01:59:52.287Z,14.00
2018-10-17T02:02:20.721Z,13.90
2018-10-17T02:04:49.190Z,13.80
2018-10-17T02:07:17.585Z,13.80
2018-10-17T02:09:46.000Z,13.80
2018-10-17T02:12:14.405Z,13.70
2018-10-17T02:14:42.756Z,13.60
2018-10-17T02:17:11.273Z,13.70
2018-10-17T02:19:39.622Z,13.60
2018-10-17T02:22:08.001Z,13.60
2018-10-17T02:24:36.405Z,13.60
2018-10-17T02:27:04.897Z,13.60
2018-10-17T02:29:33.303Z,13.60
2018-10-17T02:32:01.716Z,13.60
2018-10-17T02:34:30.110Z,13.50
2018-10-17T02:36:58.553Z,13.50
2018-10-17T02:39:26.980Z,13.50
2018-10-17T02:41:55.403Z,13.50
2018-10-17T02:44:23.810Z,13.40
2018-10-17T02:46:52.244Z,13.40
2018-10-17T02:49:27.384Z,13.40
2018-10-17T02:51:55.840Z,13.40
2018-10-17T02:54:24.220Z,13.40
2018-10-17T02:56:52.621Z,13.30
2018-10-17T02:59:21.950Z,13.20
2018-10-17T03:01:50.432Z,13.10
2018-10-17T03:04:18.876Z,13.10
2018-10-17T03:06:47.296Z,13.10
2018-10-17T03:09:15.723Z,13.00
2018-10-17T03:11:44.197Z,13.00
2018-10-17T03:14:12.677Z,13.10
2018-10-17T03:16:41.370Z,13.40
2018-10-17T03:19:09.981Z,13.60
2018-10-17T03:21:38.598Z,13.70
2018-10-17T03:24:07.209Z,13.80
2018-10-17T03:26:35.912Z,13.90
2018-10-17T03:29:04.515Z,14.00
2018-10-17T03:31:33.081Z,14.00
2018-10-17T03:34:01.669Z,14.00
2018-10-17T03:36:30.160Z,14.00
2018-10-17T03:38:58.708Z,14.00
2018-10-17T03:41:27.284Z,14.00
2018-10-17T03:43:55.859Z,14.00
2018-10-17T03:46:24.425Z,14.00
2018-10-17T03:48:53.024Z,14.00
2018-10-17T03:51:21.695Z,14.00
2018-10-17T03:53:50.156Z,14.00
2018-10-17T03:56:18.649Z,13.90
2018-10-17T03:58:47.261Z,13.90
2018-10-17T04:01:15.769Z,13.90
2018-10-17T04:03:44.148Z,13.80
2018-10-17T04:06:12.659Z,13.80
2018-10-17T04:08:41.114Z,13.70
2018-10-17T04:11:09.624Z,13.70
2018-10-17T04:13:37.988Z,13.60
2018-10-17T04:16:06.380Z,13.60
2018-10-17T04:18:34.831Z,13.50
2018-10-17T04:21:03.228Z,13.40
2018-10-17T04:23:31.656Z,13.40
2018-10-17T04:26:00.048Z,13.40
2018-10-17T04:28:28.579Z,13.40
2018-10-17T04:30:57.008Z,13.40
2018-10-17T04:33:25.465Z,13.30
2018-10-17T04:35:53.901Z,13.30
2018-10-17T04:38:22.472Z,13.30
2018-10-17T04:40:50.884Z,13.30
2018-10-17T04:43:19.562Z,13.40
2018-10-17T04:45:47.887Z,13.30
2018-10-17T04:48:16.360Z,13.30
2018-10-17T04:50:44.744Z,13.40
2018-10-17T04:53:13.213Z,13.40
2018-10-17T04:55:41.723Z,13.40
2018-10-17T04:58:10.176Z,13.30
2018-10-17T05:00:38.692Z,13.20
2018-10-17T05:03:07.153Z,13.10
2018-10-17T05:05:35.633Z,13.10
2018-10-17T05:08:04.088Z,13.00
2018-10-17T05:10:32.584Z,13.00
2018-10-17T05:13:01.175Z,12.90
2018-10-17T05:15:29.667Z,12.90
2018-10-17T05:17:58.153Z,12.90
2018-10-17T05:20:26.841Z,12.70
2018-10-17T05:22:55.377Z,12.80
2018-10-17T05:25:23.724Z,12.70
2018-10-17T05:27:52.168Z,12.70
2018-10-17T05:30:20.563Z,12.80
2018-10-17T05:32:49.075Z,12.70
2018-10-17T05:35:17.537Z,12.60
2018-10-17T05:37:46.135Z,12.60
2018-10-17T05:40:14.502Z,12.50
2018-10-17T05:42:42.984Z,12.40
2018-10-17T05:45:11.424Z,12.50
2018-10-17T05:47:40.217Z,12.50
2018-10-17T05:50:08.703Z,12.60
2018-10-17T05:52:37.160Z,12.50
2018-10-17T05:55:06.090Z,12.50
2018-10-17T05:57:34.460Z,12.50
2018-10-17T06:00:02.862Z,12.60
2018-10-17T06:02:34.097Z,12.50
2018-10-17T06:05:02.569Z,12.60
2018-10-17T06:07:30.949Z,12.60
2018-10-17T06:09:59.756Z,12.60
2018-10-17T06:12:28.196Z,12.70
2018-10-17T06:14:56.664Z,12.70
2018-10-17T06:17:25.112Z,12.70
2018-10-17T06:19:53.707Z,12.80
2018-10-17T06:22:22.175Z,12.80
2018-10-17T06:24:50.750Z,12.80
2018-10-17T06:27:19.144Z,12.90
2018-10-17T06:29:47.674Z,12.90
2018-10-17T06:32:16.136Z,13.00
2018-10-17T06:34:44.807Z,13.10
2018-10-17T06:37:13.309Z,13.10
2018-10-17T06:39:41.712Z,13.20
2018-10-17T06:42:10.250Z,13.30
2018-10-17T06:44:38.731Z,13.30
2018-10-17T06:47:07.404Z,13.30
2018-10-17T06:49:35.943Z,13.40
2018-10-17T06:52:04.368Z,13.50
2018-10-17T06:54:33.096Z,13.50
2018-10-17T06:57:01.521Z,13.60
2018-10-17T06:59:30.061Z,13.70
2018-10-17T07:01:59.142Z,13.80
2018-10-17T07:04:27.575Z,13.90
2018-10-17T07:06:56.153Z,13.90
2018-10-17T07:09:24.761Z,14.00
2018-10-17T07:11:53.252Z,14.10
2018-10-17T07:14:22.417Z,14.10
2018-10-17T07:16:51.006Z,14.20
2018-10-17T07:19:19.448Z,14.30
2018-10-17T07:21:47.903Z,14.30
2018-10-17T07:27:19.732Z,14.30
2018-10-17T07:29:48.239Z,14.60
2018-10-17T07:32:16.782Z,14.70
2018-10-17T07:34:45.265Z,14.80
2018-10-17T07:37:13.749Z,14.90
2018-10-17T07:39:42.361Z,15.20
2018-10-17T07:42:10.883Z,15.40
2018-10-17T07:44:39.395Z,15.90
2018-10-17T07:47:07.868Z,16.00
2018-10-17T07:49:36.432Z,16.30
2018-10-17T07:52:05.552Z,16.50
2018-10-17T07:54:34.016Z,16.50
2018-10-17T07:57:02.461Z,16.60
2018-10-17T07:59:30.959Z,16.60
2018-10-17T08:01:59.357Z,16.70
2018-10-17T08:04:27.788Z,17.20
2018-10-17T08:06:56.280Z,17.90
2018-10-17T08:09:24.719Z,18.90
2018-10-17T08:11:53.212Z,19.00
2018-10-17T08:14:21.641Z,18.90
2018-10-17T08:16:50.970Z,19.20
2018-10-17T08:19:19.499Z,19.60
2018-10-17T08:21:47.958Z,19.80
2018-10-17T08:24:16.477Z,20.00
2018-10-17T08:26:44.907Z,20.80
2018-10-17T08:29:13.683Z,21.00
2018-10-17T08:31:42.205Z,21.00
2018-10-17T08:34:10.659Z,20.50
2018-10-17T08:36:39.392Z,20.40
2018-10-17T08:39:09.072Z,20.10
2018-10-17T08:41:37.545Z,20.30
2018-10-17T08:44:06.042Z,20.60
2018-10-17T08:46:34.528Z,21.10
2018-10-17T08:49:02.956Z,21.30
2018-10-17T08:51:31.405Z,22.10
2018-10-17T08:53:59.880Z,22.50
2018-10-17T08:56:28.353Z,21.80
2018-10-17T08:58:56.875Z,21.10
2018-10-17T09:01:25.341Z,21.60
2018-10-17T09:03:53.847Z,22.00
2018-10-17T09:06:22.287Z,23.10
2018-10-17T09:08:50.825Z,23.20
2018-10-17T09:11:19.578Z,22.80
2018-10-17T09:13:48.035Z,23.50
2018-10-17T09:16:16.599Z,23.90
2018-10-17T09:18:44.950Z,24.20
2018-10-17T09:21:13.654Z,24.30
2018-10-17T09:23:42.017Z,24.30
2018-10-17T09:26:10.480Z,24.40
2018-10-17T09:28:38.908Z,23.50
2018-10-17T09:31:07.428Z,23.50
2018-10-17T09:33:35.860Z,23.10
2018-10-17T09:36:04.510Z,23.50
2018-10-17T09:38:33.009Z,22.90
2018-10-17T09:41:01.471Z,23.00
2018-10-17T09:43:29.941Z,23.10
2018-10-17T09:45:58.473Z,23.20
2018-10-17T09:48:26.864Z,23.10
2018-10-17T09:50:55.940Z,23.10
2018-10-17T09:53:24.404Z,23.20
2018-10-17T09:55:52.833Z,23.30
2018-10-17T09:58:21.256Z,23.00
2018-10-17T10:00:54.972Z,23.30
2018-10-17T10:03:23.399Z,23.10
2018-10-17T10:05:51.866Z,23.10
2018-10-17T10:08:20.292Z,22.80
2018-10-17T10:10:48.818Z,22.60
2018-10-17T10:13:17.213Z,22.60
2018-10-17T10:15:45.697Z,22.30
2018-10-17T10:18:14.160Z,22.20
2018-10-17T10:20:42.624Z,22.20
2018-10-17T10:23:11.160Z,22.40
2018-10-17T10:25:39.545Z,21.90
2018-10-17T10:28:08.062Z,22.40
2018-10-17T10:30:36.552Z,22.40
2018-10-17T10:33:05.791Z,22.30
2018-10-17T10:35:34.220Z,22.40
2018-10-17T10:38:02.695Z,22.20
2018-10-17T10:40:31.203Z,21.40
2018-10-17T10:42:59.628Z,21.30
2018-10-17T10:45:28.083Z,21.50
2018-10-17T10:47:56.595Z,21.60
2018-10-17T10:50:25.045Z,21.50
2018-10-17T10:52:53.654Z,21.50
2018-10-17T10:55:22.013Z,21.40
2018-10-17T10:57:50.504Z,21.60
2018-10-17T11:00:19.020Z,21.30
2018-10-17T11:02:47.385Z,21.20
2018-10-17T11:05:15.920Z,21.30
2018-10-17T11:07:44.335Z,21.30
2018-10-17T11:10:12.769Z,21.50
2018-10-17T11:12:41.229Z,21.80
2018-10-17T11:15:10.077Z,21.50
2018-10-17T11:17:38.472Z,21.60
2018-10-17T11:20:07.811Z,21.60
2018-10-17T11:22:36.292Z,21.60
2018-10-17T11:25:05.305Z,21.80
2018-10-17T11:27:34.048Z,21.80
2018-10-17T11:30:02.516Z,21.50
2018-10-17T11:32:31.085Z,21.60
2018-10-17T11:34:59.836Z,21.70
2018-10-17T11:37:28.620Z,21.70
2018-10-17T11:39:57.133Z,21.60
2018-10-17T11:42:25.675Z,21.60
2018-10-17T11:44:54.123Z,21.60
2018-10-17T11:47:22.578Z,21.60
2018-10-17T11:49:51.036Z,21.50
2018-10-17T11:52:19.500Z,21.70
2018-10-17T11:54:47.917Z,22.00
2018-10-17T11:57:16.427Z,22.00
2018-10-17T11:59:47.982Z,22.10
2018-10-17T12:02:16.409Z,22.30
2018-10-17T12:04:45.080Z,22.20
2018-10-17T12:07:13.344Z,22.40
2018-10-17T12:09:41.996Z,22.40
2018-10-17T12:12:10.644Z,22.50
2018-10-17T12:14:39.135Z,22.60
2018-10-17T12:17:07.720Z,22.60
2018-10-17T12:19:36.228Z,22.40
2018-10-17T12:22:04.712Z,22.40
2018-10-17T12:24:33.368Z,22.60
2018-10-17T12:27:01.939Z,22.80
2018-10-17T12:29:30.341Z,22.60
2018-10-17T12:31:58.793Z,22.50
2018-10-17T12:34:27.253Z,22.50
2018-10-17T12:36:55.691Z,22.80
2018-10-17T12:39:24.168Z,22.80
2018-10-17T12:41:52.596Z,22.60
2018-10-17T12:44:21.163Z,22.60
2018-10-17T12:46:49.462Z,22.40
2018-10-17T12:49:17.893Z,22.60
2018-10-17T12:51:46.307Z,22.50
2018-10-17T12:54:14.732Z,22.40
2018-10-17T12:56:43.172Z,22.60
2018-10-17T12:59:11.688Z,22.80
2018-10-17T13:01:40.076Z,22.70
2018-10-17T13:04:08.500Z,22.70
2018-10-17T13:06:36.913Z,22.70
2018-10-17T13:09:08.670Z,22.70
2018-10-17T13:11:37.201Z,22.80
2018-10-17T13:14:05.674Z,22.80
2018-10-17T13:16:34.336Z,22.70
2018-10-17T13:19:02.818Z,22.90
2018-10-17T13:21:31.306Z,23.00
2018-10-17T13:24:00.105Z,22.70
2018-10-17T13:26:28.531Z,22.60
2018-10-17T13:28:57.078Z,22.60
2018-10-17T13:31:25.490Z,22.60
2018-10-17T13:33:53.916Z,22.50
2018-10-17T13:36:22.344Z,22.30
2018-10-17T13:38:50.782Z,22.30
2018-10-17T13:41:19.261Z,22.50
2018-10-17T13:43:47.664Z,22.70
2018-10-17T13:46:16.084Z,22.80
2018-10-17T13:48:44.536Z,22.90
2018-10-17T13:51:13.012Z,22.80
2018-10-17T13:53:41.448Z,22.70
2018-10-17T13:56:09.873Z,22.70
2018-10-17T13:58:38.340Z,22.70
2018-10-17T14:01:06.858Z,22.60
2018-10-17T14:03:35.228Z,22.60
2018-10-17T14:06:03.686Z,22.60
2018-10-17T14:08:32.092Z,22.70
2018-10-17T14:11:00.521Z,22.60
2018-10-17T14:13:29.033Z,22.70
2018-10-17T14:15:57.413Z,22.40
2018-10-17T14:18:25.844Z,22.50
2018-10-17T14:20:54.331Z,22.60
2018-10-17T14:23:22.743Z,22.50
2018-10-17T14:25:51.152Z,22.40
2018-10-17T14:28:19.572Z,22.40
2018-10-17T14:30:48.024Z,22.50
2018-10-17T14:33:16.600Z,22.50
2018-10-17T14:35:44.976Z,22.50
2018-10-17T14:38:13.416Z,22.50
2018-10-17T14:40:41.907Z,22.50
2018-10-17T14:43:10.282Z,22.40
2018-10-17T14:45:38.732Z,22.30
2018-10-17T14:48:07.351Z,22.20
2018-10-17T14:50:35.765Z,22.20
2018-10-17T14:53:04.264Z,22.10
2018-10-17T14:55:32.680Z,22.10
2018-10-17T14:58:01.208Z,22.00
2018-10-17T15:00:29.674Z,21.90
2018-10-17T15:02:58.108Z,21.90
2018-10-17T15:05:26.529Z,21.90
2018-10-17T15:07:54.938Z,21.80
2018-10-17T15:10:23.428Z,21.80
2018-10-17T15:12:51.924Z,21.70
2018-10-17T15:15:20.488Z,21.70
2018-10-17T15:17:48.879Z,21.60
2018-10-17T15:20:17.311Z,21.50
2018-10-17T15:22:45.748Z,21.50
2018-10-17T15:25:14.208Z,21.40
2018-10-17T15:27:42.608Z,21.40
2018-10-17T15:30:11.156Z,21.40
2018-10-17T15:32:39.496Z,21.30
2018-10-17T15:35:08.484Z,21.30
2018-10-17T15:37:36.957Z,21.20
2018-10-17T15:40:05.594Z,21.10
2018-10-17T15:42:34.056Z,21.10
2018-10-17T15:45:02.557Z,21.00
2018-10-17T15:47:30.958Z,20.90
2018-10-17T15:49:59.417Z,20.80
2018-10-17T15:52:27.843Z,20.70
2018-10-17T15:54:56.309Z,20.60
2018-10-17T15:57:24.739Z,20.60
2018-10-17T15:59:53.250Z,20.40
2018-10-17T16:02:21.704Z,20.40
2018-10-17T16:04:50.094Z,20.20
2018-10-17T16:07:18.555Z,20.10
2018-10-17T16:09:46.985Z,20.00
2018-10-17T16:12:15.486Z,19.90
2018-10-17T16:14:44.023Z,19.80
2018-10-17T16:17:12.550Z,19.70
2018-10-17T16:19:40.948Z,19.60
2018-10-17T16:22:09.432Z,19.40
2018-10-17T16:24:37.864Z,19.30
2018-10-17T16:27:06.443Z,19.20
2018-10-17T16:29:34.964Z,19.10
2018-10-17T16:32:03.509Z,19.00
2018-10-17T16:34:31.916Z,18.90
2018-10-17T16:37:00.389Z,18.80
2018-10-17T16:39:28.844Z,18.70
2018-10-17T16:41:57.365Z,18.60
2018-10-17T16:44:25.767Z,18.50
2018-10-17T16:46:54.276Z,18.40
2018-10-17T16:49:22.827Z,18.30
2018-10-17T16:51:51.280Z,18.20
2018-10-17T16:54:19.757Z,18.20
2018-10-17T16:56:48.200Z,18.00
2018-10-17T16:59:16.647Z,17.90
2018-10-17T17:01:45.113Z,17.90
2018-10-17T17:04:13.604Z,17.80
2018-10-17T17:06:42.104Z,17.70
2018-10-17T17:09:11.492Z,17.60
2018-10-17T17:11:39.980Z,17.60
2018-10-17T17:14:08.548Z,17.50
2018-10-17T17:16:36.993Z,17.50
2018-10-17T17:19:05.568Z,17.40
2018-10-17T17:21:34.141Z,17.40
2018-10-17T17:24:02.719Z,17.40
2018-10-17T17:26:31.154Z,17.40
2018-10-17T17:28:59.575Z,17.50
2018-10-17T17:31:28.029Z,17.50
2018-10-17T17:33:56.469Z,17.40
2018-10-17T17:36:24.972Z,17.40
2018-10-17T17:38:53.645Z,17.30
2018-10-17T17:41:22.169Z,17.20
2018-10-17T17:43:50.620Z,17.20
2018-10-17T17:46:19.088Z,17.20
2018-10-17T17:48:47.534Z,17.10
2018-10-17T17:51:16.197Z,17.10
2018-10-17T17:53:44.644Z,17.10
2018-10-17T17:56:13.140Z,17.00
2018-10-17T17:58:41.669Z,17.00
2018-10-17T18:01:10.084Z,17.00
2018-10-17T18:03:38.516Z,17.00
2018-10-17T18:06:06.964Z,17.00
2018-10-17T18:08:35.443Z,17.00
2018-10-17T18:11:25.354Z,17.00
2018-10-17T18:13:55.049Z,16.90
2018-10-17T18:16:23.532Z,16.90
2018-10-17T18:18:51.972Z,16.90
2018-10-17T18:21:20.399Z,16.90
2018-10-17T18:23:48.869Z,16.80
2018-10-17T18:26:17.367Z,16.80
2018-10-17T18:28:45.832Z,16.80
2018-10-17T18:31:14.290Z,16.80
2018-10-17T18:33:42.780Z,16.70
2018-10-17T18:36:11.224Z,16.70
2018-10-17T18:38:39.707Z,16.70
2018-10-17T18:41:08.177Z,16.60
2018-10-17T18:43:36.644Z,16.60
2018-10-17T18:46:05.380Z,16.60
2018-10-17T18:48:33.836Z,16.60
2018-10-17T18:51:02.339Z,16.50
2018-10-17T18:53:31.105Z,16.60
2018-10-17T18:55:59.678Z,16.50
2018-10-17T18:58:28.162Z,16.50
2018-10-17T19:00:56.623Z,16.50
2018-10-17T19:03:25.093Z,16.50
2018-10-17T19:05:53.596Z,16.40
2018-10-17T19:08:22.176Z,16.40
2018-10-17T19:10:50.542Z,16.30
2018-10-17T19:13:19.020Z,16.30
2018-10-17T19:15:47.547Z,16.30
2018-10-17T19:18:15.987Z,16.30
2018-10-17T19:20:44.432Z,16.20
2018-10-17T19:23:12.916Z,16.20
2018-10-17T19:25:41.368Z,16.10
2018-10-17T19:28:09.828Z,16.10
2018-10-17T19:30:38.268Z,16.00
2018-10-17T19:33:06.786Z,16.00
2018-10-17T19:35:35.364Z,15.90
2018-10-17T19:38:03.933Z,15.90
2018-10-17T19:40:32.384Z,15.80
2018-10-17T19:43:01.035Z,15.80
2018-10-17T19:45:29.489Z,15.80
2018-10-17T19:47:57.966Z,15.80
2018-10-17T19:50:26.390Z,15.70
2018-10-17T19:52:54.860Z,15.70
2018-10-17T19:55:23.365Z,15.70
2018-10-17T19:57:51.845Z,15.70
2018-10-17T20:00:20.340Z,15.60
2018-10-17T20:02:48.808Z,15.60
2018-10-17T20:05:17.332Z,15.60
2018-10-17T20:07:45.876Z,15.60
2018-10-17T20:10:14.283Z,15.50
2018-10-17T20:12:42.784Z,15.50
2018-10-17T20:15:11.300Z,15.50
2018-10-17T20:17:39.757Z,15.50
2018-10-17T20:20:08.230Z,15.40
2018-10-17T20:22:36.673Z,15.40
2018-10-17T20:25:05.877Z,15.40
2018-10-17T20:27:34.284Z,15.30
2018-10-17T20:30:02.751Z,15.30
2018-10-17T20:32:31.235Z,15.20
2018-10-17T20:34:59.794Z,15.20
2018-10-17T20:37:28.190Z,15.10
2018-10-17T20:39:56.658Z,15.10
2018-10-17T20:42:25.138Z,15.10
2018-10-17T20:44:53.584Z,15.00
2018-10-17T20:47:22.009Z,14.90
2018-10-17T20:49:50.468Z,14.90
2018-10-17T20:52:19.015Z,14.80
2018-10-17T20:54:47.433Z,14.80
2018-10-17T20:57:15.895Z,14.70
2018-10-17T20:59:44.372Z,14.70
2018-10-17T21:02:12.932Z,14.70
2018-10-17T21:04:41.316Z,14.60
2018-10-17T21:07:09.808Z,14.60
2018-10-17T21:09:38.302Z,14.50
2018-10-17T21:12:06.708Z,14.50
2018-10-17T21:14:35.169Z,14.50
2018-10-17T21:17:03.605Z,14.50
2018-10-17T21:19:32.066Z,14.50
2018-10-17T21:22:00.529Z,14.50
2018-10-17T21:24:28.980Z,14.40
2018-10-17T21:26:57.546Z,14.40
2018-10-17T21:29:25.890Z,14.40
2018-10-17T21:31:54.332Z,14.30
2018-10-17T21:34:22.799Z,14.30
2018-10-17T21:36:51.335Z,14.30
2018-10-17T21:39:19.784Z,14.30
2018-10-17T21:41:48.196Z,14.30
2018-10-17T21:44:16.642Z,14.30
2018-10-17T21:46:45.045Z,14.20
2018-10-17T21:49:13.467Z,14.20
2018-10-17T21:51:42.025Z,14.20
2018-10-17T21:54:10.446Z,14.20
2018-10-17T21:56:38.848Z,14.20
2018-10-17T21:59:07.584Z,14.20
2018-10-17T22:01:35.995Z,14.20
2018-10-17T22:04:04.481Z,14.10
2018-10-17T22:06:32.896Z,14.10
2018-10-17T22:09:01.512Z,14.10
2018-10-17T22:11:29.941Z,14.10
2018-10-17T22:13:58.414Z,14.10
2018-10-17T22:17:29.803Z,14.10
2018-10-17T22:19:58.463Z,14.00
2018-10-17T22:22:27.192Z,14.00
2018-10-17T22:24:56.311Z,14.00
2018-10-17T22:27:24.759Z,14.00
2018-10-17T22:29:53.447Z,13.90
2018-10-17T22:32:21.818Z,13.90
2018-10-17T22:34:50.268Z,13.90
2018-10-17T22:37:18.706Z,13.80
2018-10-17T22:39:47.144Z,13.80
2018-10-17T22:42:15.553Z,13.80
2018-10-17T22:44:44.061Z,13.70
2018-10-17T22:47:12.504Z,13.70
2018-10-17T22:49:40.939Z,13.60
2018-10-17T22:52:09.339Z,13.60
2018-10-17T22:54:37.755Z,13.60
2018-10-17T22:57:06.812Z,13.60
2018-10-17T22:59:35.232Z,13.60
2018-10-17T23:02:03.907Z,13.50
2018-10-17T23:04:32.411Z,13.50
2018-10-17T23:07:00.872Z,13.40
2018-10-17T23:09:29.284Z,13.40
2018-10-17T23:11:57.725Z,13.40
2018-10-17T23:14:26.145Z,13.40
2018-10-17T23:16:54.575Z,13.40
2018-10-17T23:19:22.999Z,13.40
2018-10-17T23:21:51.460Z,13.30
2018-10-17T23:24:20.000Z,13.30
2018-10-17T23:26:48.472Z,13.30
2018-10-17T23:29:16.913Z,13.30
2018-10-17T23:31:45.371Z,13.20
2018-10-17T23:34:13.808Z,13.30
2018-10-17T23:36:42.259Z,13.30
2018-10-17T23:39:10.826Z,13.20
2018-10-17T23:41:40.164Z,13.20
2018-10-17T23:44:08.676Z,13.20
2018-10-17T23:46:37.124Z,13.10
2018-10-17T23:49:05.618Z,13.20
2018-10-17T23:51:34.096Z,13.20
2018-10-17T23:54:02.591Z,13.10
2018-10-17T23:56:31.012Z,13.10
2018-10-17T23:58:59.440Z,13.10
